tititudorancea.com
Station Historical Data
Daily Summary for Nil La, TWC- Units:  English    Metric   Both
« Previous Day
Next Day »
Daily Weekly Monthly Yearly Custom
  High: Low: Average:
Temperature: TemperatureF °F 55.6 °F 61.9 °F
Dew Point: DewpointF °F 52.4 °F 54 °F
Humidity: Humidity % 41 % 77 %
Wind Speed: WindSpeedMPH mph 0.0 mph 4.5 mph
Wind Gust: WindSpeedGustMPH mph - -
Wind:- - SW
Pressure: PressureIn in 29.96 in -
Precipitation: 0.00 in    
Historical Graphs
 
 
Ararat weather Find more about Weather in Ararat, AU


 



 


Tabular Data for Nil La, TWC-
Time Temperature Dew Point Pressure Wind Wind Speed Wind Gust Humidity Rainfall Rate (Hourly)
TemperatureF °F DewpointF °F PressureIn in Calm     Humidity % HourlyPrecipIn in
00:02 61.9 °F 55.3 °F 29.96 in SE 12.2 mph 19.6 mph 79 % 0.00 in
00:07 61.8 °F 55.2 °F 29.96 in SE 13.9 mph 17.3 mph 79 % 0.00 in
00:12 61.7 °F 55.1 °F 29.96 in SSE 8.5 mph 12.7 mph 79 % 0.00 in
00:17 61.6 °F 55.4 °F 29.97 in ESE 0.8 mph 3.5 mph 80 % 0.00 in
00:22 61.5 °F 55.3 °F 29.97 in ESE 2.8 mph 2.8 mph 80 % 0.00 in
00:27 61.4 °F 55.2 °F 29.97 in North 5.6 mph 9.2 mph 80 % 0.00 in
00:32 61.3 °F 55.1 °F 29.97 in SE 5.6 mph 9.2 mph 80 % 0.00 in
00:37 61.2 °F 55.3 °F 29.97 in SE 3.5 mph 8.1 mph 81 % 0.00 in
00:42 61.1 °F 55.2 °F 29.97 in North 8.1 mph 9.2 mph 81 % 0.00 in
00:47 61.0 °F 55.1 °F 29.97 in SE 7.0 mph 13.0 mph 81 % 0.00 in
00:52 60.8 °F 54.9 °F 29.97 in SSE 10.0 mph 13.8 mph 81 % 0.00 in
00:57 60.8 °F 55.3 °F 29.97 in North 7.5 mph 11.5 mph 82 % 0.00 in
01:02 60.6 °F 55.1 °F 29.97 in SSE 8.6 mph 13.8 mph 82 % 0.00 in
01:07 60.5 °F 55.0 °F 29.97 in South 6.1 mph 11.5 mph 82 % 0.00 in
01:12 60.4 °F 54.9 °F 29.97 in SSE 7.8 mph 8.1 mph 82 % 0.00 in
01:17 60.3 °F 55.1 °F 29.97 in SSE 9.4 mph 11.5 mph 83 % 0.00 in
01:22 60.2 °F 55.0 °F 29.97 in SE 6.1 mph 11.5 mph 83 % 0.00 in
01:27 60.1 °F 54.9 °F 29.97 in SE 9.8 mph 9.8 mph 83 % 0.00 in
01:32 60.1 °F 54.9 °F 29.97 in SSE 9.4 mph 13.0 mph 83 % 0.00 in
01:37 60.0 °F 54.8 °F 29.98 in North 6.8 mph 11.5 mph 83 % 0.00 in
01:42 59.9 °F 54.7 °F 29.98 in SSE 5.9 mph 10.4 mph 83 % 0.00 in
01:47 59.8 °F 54.6 °F 29.98 in SSE 8.4 mph 13.8 mph 83 % 0.00 in
01:52 59.7 °F 54.5 °F 29.98 in SSE 4.9 mph 9.2 mph 83 % 0.00 in
01:57 59.5 °F 54.3 °F 29.98 in SSE 6.0 mph 10.4 mph 83 % 0.00 in
02:02 59.4 °F 54.6 °F 29.98 in SSE 7.7 mph 10.0 mph 84 % 0.00 in
02:07 59.4 °F 54.6 °F 29.98 in South 4.5 mph 10.4 mph 84 % 0.00 in
02:12 59.4 °F 54.6 °F 29.99 in South 3.2 mph 6.9 mph 84 % 0.00 in
02:17 59.3 °F 54.5 °F 29.98 in South 7.2 mph 14.0 mph 84 % 0.00 in
02:22 59.2 °F 54.4 °F 29.99 in South 4.6 mph 4.6 mph 84 % 0.00 in
02:28 59.2 °F 54.4 °F 29.99 in South 6.5 mph 6.5 mph 84 % 0.00 in
02:33 59.1 °F 54.3 °F 29.99 in South 5.0 mph 8.0 mph 84 % 0.00 in
02:38 59.0 °F 54.2 °F 29.98 in North 4.4 mph 6.9 mph 84 % 0.00 in
02:43 58.8 °F 54.0 °F 29.98 in South 7.1 mph 9.0 mph 84 % 0.00 in
02:48 58.6 °F 54.1 °F 29.98 in North 7.6 mph 9.2 mph 85 % 0.00 in
02:53 58.5 °F 54.0 °F 29.98 in North 4.1 mph 9.2 mph 85 % 0.00 in
02:58 58.4 °F 53.9 °F 29.98 in North 5.3 mph 9.2 mph 85 % 0.00 in
03:03 58.2 °F 53.7 °F 29.98 in South 3.6 mph 8.1 mph 85 % 0.00 in
03:08 58.1 °F 53.9 °F 29.98 in South 5.2 mph 8.0 mph 86 % 0.00 in
03:13 58.0 °F 53.8 °F 29.98 in South 3.0 mph 4.0 mph 86 % 0.00 in
03:18 57.8 °F 53.6 °F 29.98 in North 4.1 mph 8.1 mph 86 % 0.00 in
03:23 57.7 °F 53.5 °F 29.98 in North 4.0 mph 5.8 mph 86 % 0.00 in
03:28 57.6 °F 53.8 °F 29.98 in North 4.7 mph 9.2 mph 87 % 0.00 in
03:33 57.4 °F 53.6 °F 29.98 in North 3.6 mph 9.2 mph 87 % 0.00 in
03:38 57.4 °F 53.6 °F 29.98 in SSE 6.1 mph 10.4 mph 87 % 0.00 in
03:43 57.4 °F 53.6 °F 29.98 in SSE 4.7 mph 8.1 mph 87 % 0.00 in
03:48 57.3 °F 53.5 °F 29.98 in North 5.2 mph 6.9 mph 87 % 0.00 in
03:53 57.2 °F 53.4 °F 29.98 in SSE 4.7 mph 8.0 mph 87 % 0.00 in
03:58 57.1 °F 53.3 °F 29.98 in SSE 4.3 mph 8.1 mph 87 % 0.00 in
04:03 57.0 °F 53.2 °F 29.98 in North 4.3 mph 9.2 mph 87 % 0.00 in
04:08 56.9 °F 53.1 °F 29.98 in North 5.1 mph 8.1 mph 87 % 0.00 in
04:13 56.8 °F 53.3 °F 29.98 in South 6.5 mph 11.5 mph 88 % 0.00 in
04:18 56.7 °F 53.2 °F 29.98 in North 6.2 mph 8.1 mph 88 % 0.00 in
04:23 56.7 °F 53.2 °F 29.98 in North 6.1 mph 9.2 mph 88 % 0.00 in
04:28 56.6 °F 53.1 °F 29.98 in South 5.2 mph 9.2 mph 88 % 0.00 in
04:33 56.6 °F 53.1 °F 29.98 in South 4.4 mph 9.2 mph 88 % 0.00 in
04:39 56.5 °F 53.0 °F 29.98 in North 5.7 mph 9.2 mph 88 % 0.00 in
04:44 56.4 °F 52.9 °F 29.98 in South 6.3 mph 9.2 mph 88 % 0.00 in
04:49 56.4 °F 52.9 °F 29.98 in North 5.8 mph 11.5 mph 88 % 0.00 in
04:54 56.3 °F 52.8 °F 29.99 in South 4.5 mph 6.0 mph 88 % 0.00 in
04:59 56.2 °F 52.7 °F 29.98 in North 5.2 mph 9.0 mph 88 % 0.00 in
05:04 56.1 °F 52.9 °F 29.98 in South 5.8 mph 9.2 mph 89 % 0.00 in
05:09 56.1 °F 52.9 °F 29.98 in South 5.4 mph 8.1 mph 89 % 0.00 in
05:14 56.0 °F 52.8 °F 29.99 in South 6.3 mph 7.0 mph 89 % 0.00 in
05:19 56.0 °F 52.8 °F 29.99 in North 6.8 mph 12.0 mph 89 % 0.00 in
05:24 56.0 °F 52.8 °F 29.99 in North 5.4 mph 9.2 mph 89 % 0.00 in
05:29 56.0 °F 52.8 °F 29.99 in South 4.0 mph 9.2 mph 89 % 0.00 in
05:34 56.0 °F 52.8 °F 29.99 in South 3.1 mph 10.4 mph 89 % 0.00 in
05:39 56.0 °F 52.8 °F 29.99 in North 4.5 mph 8.1 mph 89 % 0.00 in
05:44 55.9 °F 52.7 °F 29.99 in South 3.8 mph 8.1 mph 89 % 0.00 in
05:49 56.0 °F 52.8 °F 29.99 in South 3.3 mph 8.1 mph 89 % 0.00 in
05:54 56.0 °F 52.8 °F 29.98 in South 2.8 mph 6.9 mph 89 % 0.00 in
05:59 56.0 °F 52.8 °F 29.99 in North 2.6 mph 8.1 mph 89 % 0.00 in
06:04 55.9 °F 52.7 °F 29.98 in North 5.2 mph 9.2 mph 89 % 0.00 in
06:09 55.9 °F 52.7 °F 29.99 in North 4.1 mph 4.6 mph 89 % 0.00 in
06:14 55.9 °F 52.7 °F 29.98 in South 3.1 mph 4.6 mph 89 % 0.00 in
06:19 55.8 °F 52.6 °F 29.98 in North 6.0 mph 8.1 mph 89 % 0.00 in
06:24 55.8 °F 52.6 °F 29.99 in North 5.0 mph 6.9 mph 89 % 0.00 in
06:29 55.8 °F 52.6 °F 29.99 in South 4.7 mph 8.0 mph 89 % 0.00 in
06:34 55.9 °F 52.7 °F 29.99 in South 4.4 mph 6.9 mph 89 % 0.00 in
06:39 55.9 °F 52.7 °F 29.99 in South 4.2 mph 8.1 mph 89 % 0.00 in
06:44 55.8 °F 52.6 °F 29.99 in South 4.1 mph 6.9 mph 89 % 0.00 in
06:49 55.8 °F 52.6 °F 29.99 in South 5.5 mph 10.0 mph 89 % 0.00 in
06:54 55.8 °F 52.6 °F 29.99 in North 5.5 mph 7.0 mph 89 % 0.00 in
06:59 55.8 °F 52.6 °F 29.99 in North 3.9 mph 6.9 mph 89 % 0.00 in
07:04 55.8 °F 52.6 °F 29.99 in South 3.5 mph 6.9 mph 89 % 0.00 in
07:09 55.7 °F 52.5 °F 29.99 in North 2.0 mph 5.0 mph 89 % 0.00 in
07:14 55.6 °F 52.4 °F 29.99 in South 2.1 mph 5.8 mph 89 % 0.00 in
07:19 55.6 °F 52.4 °F 29.99 in North 4.1 mph 8.1 mph 89 % 0.00 in
07:24 55.7 °F 52.5 °F 29.99 in South 4.5 mph 8.1 mph 89 % 0.00 in
07:29 55.8 °F 52.6 °F 30.00 in South 3.5 mph 9.2 mph 89 % 0.00 in
07:34 55.8 °F 52.6 °F 30.00 in North 5.3 mph 8.1 mph 89 % 0.00 in
07:39 56.0 °F 52.8 °F 30.00 in North 2.5 mph 4.6 mph 89 % 0.00 in
07:44 56.1 °F 52.9 °F 30.00 in North 3.1 mph 4.6 mph 89 % 0.00 in
07:49 56.3 °F 53.1 °F 30.00 in South 5.0 mph 11.5 mph 89 % 0.00 in
07:54 56.5 °F 53.3 °F 30.00 in South 2.9 mph 8.1 mph 89 % 0.00 in
08:00 56.8 °F 53.6 °F 30.00 in SSE 4.2 mph 6.9 mph 89 % 0.00 in
08:05 57.0 °F 53.5 °F 30.00 in North 4.0 mph 8.1 mph 88 % 0.00 in
08:10 57.4 °F 53.9 °F 30.00 in South 6.9 mph 10.0 mph 88 % 0.00 in
08:15 57.8 °F 54.0 °F 30.00 in SSE 4.0 mph 6.9 mph 87 % 0.00 in
08:20 58.1 °F 54.2 °F 30.00 in SE 5.0 mph 9.2 mph 87 % 0.00 in
08:25 58.6 °F 54.1 °F 30.00 in SSE 4.3 mph 5.8 mph 85 % 0.00 in
08:30 59.0 °F 54.5 °F 30.00 in SSE 3.2 mph 5.8 mph 85 % 0.00 in
08:35 59.4 °F 54.6 °F 30.01 in SSE 3.5 mph 6.9 mph 84 % 0.00 in
08:40 59.9 °F 54.7 °F 30.01 in North 2.4 mph 3.5 mph 83 % 0.00 in
08:46 60.4 °F 54.9 °F 30.01 in SSE 9.2 mph 9.2 mph 82 % 0.00 in
08:51 60.8 °F 54.9 °F 30.01 in SSE 3.0 mph 5.8 mph 81 % 0.00 in
08:56 61.2 °F 55.0 °F 30.01 in SSE 4.2 mph 5.8 mph 80 % 0.00 in
09:01 62.0 °F 55.4 °F 30.01 in SSE 2.8 mph 5.0 mph 79 % 0.00 in
09:06 62.6 °F 55.6 °F 30.01 in SSE 2.1 mph 4.6 mph 78 % 0.00 in
09:07 62.7 °F 55.7 °F 30.01 in SSE 2.4 mph 4.6 mph 78 % 0.00 in
09:12 63.5 °F 55.8 °F 30.01 in SSE 1.4 mph 4.6 mph 76 % 0.00 in
09:17 63.9 °F 55.4 °F 30.01 in SSE 2.0 mph 3.5 mph 74 % 0.00 in
09:22 64.2 °F 55.7 °F 30.01 in SSE 2.0 mph 3.5 mph 74 % 0.00 in
09:27 64.6 °F 55.7 °F 30.01 in SSE 2.0 mph 5.0 mph 73 % 0.00 in
09:32 64.8 °F 55.6 °F 30.01 in SSE 5.1 mph 6.9 mph 72 % 0.00 in
09:37 65.0 °F 55.4 °F 30.01 in SSE 3.6 mph 4.6 mph 71 % 0.00 in
09:42 65.5 °F 55.5 °F 30.01 in SSE 4.7 mph 5.8 mph 70 % 0.00 in
09:47 66.1 °F 55.6 °F 30.01 in SSE 5.4 mph 6.9 mph 69 % 0.00 in
09:52 66.7 °F 55.4 °F 30.01 in South 3.3 mph 4.6 mph 67 % 0.00 in
09:57 67.4 °F 55.6 °F 30.01 in North 2.9 mph 5.8 mph 66 % 0.00 in
10:02 67.7 °F 55.5 °F 30.01 in South 2.9 mph 3.5 mph 65 % 0.00 in
10:07 68.2 °F 56.0 °F 30.01 in South 1.5 mph 3.5 mph 65 % 0.00 in
10:12 69.3 °F 56.6 °F 30.01 in North 0.1 mph 1.2 mph 64 % 0.00 in
10:17 70.2 °F 56.1 °F 30.00 in South 2.5 mph 3.5 mph 61 % 0.00 in
10:22 70.4 °F 55.8 °F 30.00 in South 0.5 mph 1.2 mph 60 % 0.00 in
10:27 70.9 °F 56.3 °F 30.00 in Calm     60 % 0.00 in
10:32 71.9 °F 55.8 °F 30.00 in South 1.0 mph 2.3 mph 57 % 0.00 in
10:37 72.7 °F 56.1 °F 30.00 in North 0.5 mph 2.3 mph 56 % 0.00 in
10:42 73.3 °F 55.6 °F 30.00 in South 0.8 mph 3.5 mph 54 % 0.00 in
10:47 74.2 °F 56.0 °F 30.00 in South 0.2 mph 1.2 mph 53 % 0.00 in
10:52 75.1 °F 55.7 °F 30.00 in Calm   1.2 mph 51 % 0.00 in
10:57 76.1 °F 56.1 °F 30.00 in ESE 3.6 mph 6.9 mph 50 % 0.00 in
11:02 76.5 °F 55.9 °F 29.99 in ESE 3.8 mph 5.8 mph 49 % 0.00 in
11:07 76.9 °F 55.7 °F 29.99 in ESE 3.0 mph 5.0 mph 48 % 0.00 in
11:12 76.8 °F 55.0 °F 29.99 in NNE 5.0 mph 6.9 mph 47 % 0.00 in
11:17 76.6 °F 54.9 °F 29.99 in NNE 2.1 mph 4.6 mph 47 % 0.00 in
11:22 77.2 °F 56.0 °F 29.99 in ENE 3.7 mph 6.9 mph 48 % 0.00 in
11:27 77.6 °F 55.8 °F 29.99 in NE 3.2 mph 5.0 mph 47 % 0.00 in
11:32 78.0 °F 56.1 °F 29.99 in North 6.8 mph 9.2 mph 47 % 0.00 in
11:37 78.0 °F 55.5 °F 29.99 in NNW 5.1 mph 5.8 mph 46 % 0.00 in
11:42 78.1 °F 56.2 °F 29.98 in NNW 1.7 mph 3.5 mph 47 % 0.00 in
11:47 79.3 °F 56.1 °F 29.98 in NNE 2.7 mph 6.0 mph 45 % 0.00 in
11:52 80.8 °F 56.9 °F 29.98 in NNE 1.7 mph 3.5 mph 44 % 0.00 in
11:57 80.8 °F 55.6 °F 29.97 in NE 6.1 mph 8.1 mph 42 % 0.00 in
12:02 80.6 °F 56.0 °F 29.97 in NNW 4.0 mph 5.8 mph 43 % 0.00 in
12:07 80.4 °F 55.9 °F 29.97 in NNW 2.6 mph 3.5 mph 43 % 0.00 in
12:12 80.9 °F 55.7 °F 29.97 in NNE 4.9 mph 8.1 mph 42 % 0.00 in
12:17 80.9 °F 56.3 °F 29.97 in NNE 0.8 mph 2.3 mph 43 % 0.00 in
12:22 81.8 °F 55.8 °F 29.97 in NNE 3.0 mph 4.6 mph 41 % 0.00 in
12:27 82.0 °F 56.0 °F 29.96 in North 6.0 mph 9.2 mph 41 % 0.00 in
12:32 81.7 °F 55.7 °F 29.96 in NNW 4.9 mph 6.9 mph 41 % 0.00 in
Ararat Weather
Compliments of Weather Underground - 1.25 mb
Click here to send mail.


ABOUT

Live weather data from Ararat, Victoria, Australia, 3377
Data uploaded from Cumulus every 5 minutes to Weather Underground.
This site then downloads the raw data for formatting and display.
Metric and imperial data can be displayed. Graphs and historical data available.
Includes Sun and Moon times and rain image live from BOM.

Check out Ararat Weather on Facebook, Twitter and Google +

Help support ongoing costs by checking out the ads





Follow @AraratWeather